sensor_id;sensor_type;location;lat;lon;timestamp;P1;durP1;ratioP1;P2;durP2;ratioP2
49488;SDS011;35382;51.484;11.476;2023-12-20T00:02:13;9.05;;;5.15;;
49488;SDS011;35382;51.484;11.476;2023-12-20T00:04:39;8.35;;;4.65;;
49488;SDS011;35382;51.484;11.476;2023-12-20T00:07:04;10.30;;;5.30;;
49488;SDS011;35382;51.484;11.476;2023-12-20T00:09:29;8.75;;;4.80;;
49488;SDS011;35382;51.484;11.476;2023-12-20T00:11:55;9.18;;;5.43;;
49488;SDS011;35382;51.484;11.476;2023-12-20T00:14:20;9.70;;;5.60;;
49488;SDS011;35382;51.484;11.476;2023-12-20T00:16:48;10.63;;;5.80;;
49488;SDS011;35382;51.484;11.476;2023-12-20T00:19:13;9.18;;;5.40;;
49488;SDS011;35382;51.484;11.476;2023-12-20T00:21:39;10.88;;;5.85;;
49488;SDS011;35382;51.484;11.476;2023-12-20T00:24:04;10.60;;;6.07;;
49488;SDS011;35382;51.484;11.476;2023-12-20T00:26:30;10.15;;;5.55;;
49488;SDS011;35382;51.484;11.476;2023-12-20T00:28:55;8.95;;;5.35;;
49488;SDS011;35382;51.484;11.476;2023-12-20T00:31:20;10.27;;;5.88;;
49488;SDS011;35382;51.484;11.476;2023-12-20T00:33:46;10.18;;;5.88;;
49488;SDS011;35382;51.484;11.476;2023-12-20T00:36:11;10.18;;;5.80;;
49488;SDS011;35382;51.484;11.476;2023-12-20T00:38:37;8.82;;;5.63;;
49488;SDS011;35382;51.484;11.476;2023-12-20T00:41:02;9.57;;;5.70;;
49488;SDS011;35382;51.484;11.476;2023-12-20T00:43:28;11.32;;;6.25;;
49488;SDS011;35382;51.484;11.476;2023-12-20T00:45:53;10.95;;;6.05;;
49488;SDS011;35382;51.484;11.476;2023-12-20T00:48:18;9.73;;;5.78;;
49488;SDS011;35382;51.484;11.476;2023-12-20T00:50:44;10.13;;;6.15;;
49488;SDS011;35382;51.484;11.476;2023-12-20T00:53:09;10.40;;;5.75;;
49488;SDS011;35382;51.484;11.476;2023-12-20T00:55:34;11.07;;;6.63;;
49488;SDS011;35382;51.484;11.476;2023-12-20T00:58:00;10.45;;;6.10;;
49488;SDS011;35382;51.484;11.476;2023-12-20T01:00:25;11.05;;;6.35;;
49488;SDS011;35382;51.484;11.476;2023-12-20T01:02:51;11.48;;;6.72;;
49488;SDS011;35382;51.484;11.476;2023-12-20T01:05:17;10.10;;;6.13;;
49488;SDS011;35382;51.484;11.476;2023-12-20T01:07:43;11.70;;;6.03;;
49488;SDS011;35382;51.484;11.476;2023-12-20T01:10:08;11.00;;;6.75;;
49488;SDS011;35382;51.484;11.476;2023-12-20T01:12:35;12.90;;;6.38;;
49488;SDS011;35382;51.484;11.476;2023-12-20T01:15:01;12.85;;;7.18;;
49488;SDS011;35382;51.484;11.476;2023-12-20T01:17:26;13.82;;;7.57;;
49488;SDS011;35382;51.484;11.476;2023-12-20T01:19:52;14.05;;;7.72;;
49488;SDS011;35382;51.484;11.476;2023-12-20T01:22:17;16.35;;;8.63;;
49488;SDS011;35382;51.484;11.476;2023-12-20T01:24:42;17.17;;;8.65;;
49488;SDS011;35382;51.484;11.476;2023-12-20T01:27:08;15.55;;;8.82;;
49488;SDS011;35382;51.484;11.476;2023-12-20T01:29:33;16.65;;;8.93;;
49488;SDS011;35382;51.484;11.476;2023-12-20T01:31:58;17.00;;;8.98;;
49488;SDS011;35382;51.484;11.476;2023-12-20T01:34:24;18.35;;;9.18;;
49488;SDS011;35382;51.484;11.476;2023-12-20T01:36:49;18.33;;;8.90;;
49488;SDS011;35382;51.484;11.476;2023-12-20T01:39:14;16.88;;;9.02;;
49488;SDS011;35382;51.484;11.476;2023-12-20T01:41:40;18.42;;;9.00;;
49488;SDS011;35382;51.484;11.476;2023-12-20T01:44:05;17.58;;;9.02;;
49488;SDS011;35382;51.484;11.476;2023-12-20T01:46:30;15.88;;;8.80;;
49488;SDS011;35382;51.484;11.476;2023-12-20T01:48:56;14.55;;;7.70;;
49488;SDS011;35382;51.484;11.476;2023-12-20T01:51:22;16.35;;;8.00;;
49488;SDS011;35382;51.484;11.476;2023-12-20T01:53:48;16.35;;;9.10;;
49488;SDS011;35382;51.484;11.476;2023-12-20T01:56:14;15.23;;;8.27;;
49488;SDS011;35382;51.484;11.476;2023-12-20T01:58:42;17.17;;;9.23;;
49488;SDS011;35382;51.484;11.476;2023-12-20T02:01:09;16.50;;;9.15;;
49488;SDS011;35382;51.484;11.476;2023-12-20T02:03:35;15.15;;;8.75;;
49488;SDS011;35382;51.484;11.476;2023-12-20T02:06:00;18.70;;;9.13;;
49488;SDS011;35382;51.484;11.476;2023-12-20T02:08:26;15.27;;;8.45;;
49488;SDS011;35382;51.484;11.476;2023-12-20T02:10:51;18.88;;;9.73;;
49488;SDS011;35382;51.484;11.476;2023-12-20T02:13:17;16.75;;;8.70;;
49488;SDS011;35382;51.484;11.476;2023-12-20T02:15:42;18.48;;;9.52;;
49488;SDS011;35382;51.484;11.476;2023-12-20T02:18:08;17.02;;;8.70;;
49488;SDS011;35382;51.484;11.476;2023-12-20T02:20:33;19.40;;;8.85;;
49488;SDS011;35382;51.484;11.476;2023-12-20T02:22:58;17.50;;;8.63;;
49488;SDS011;35382;51.484;11.476;2023-12-20T02:25:24;18.95;;;9.95;;
49488;SDS011;35382;51.484;11.476;2023-12-20T02:27:49;15.18;;;7.78;;
49488;SDS011;35382;51.484;11.476;2023-12-20T02:30:15;18.02;;;9.82;;
49488;SDS011;35382;51.484;11.476;2023-12-20T02:32:40;17.27;;;8.23;;
49488;SDS011;35382;51.484;11.476;2023-12-20T02:35:06;16.95;;;8.48;;
49488;SDS011;35382;51.484;11.476;2023-12-20T02:37:32;18.70;;;10.18;;
49488;SDS011;35382;51.484;11.476;2023-12-20T02:39:58;17.45;;;8.75;;
49488;SDS011;35382;51.484;11.476;2023-12-20T02:42:24;16.88;;;9.30;;
49488;SDS011;35382;51.484;11.476;2023-12-20T02:44:50;18.33;;;8.82;;
49488;SDS011;35382;51.484;11.476;2023-12-20T02:47:15;15.07;;;7.85;;
49488;SDS011;35382;51.484;11.476;2023-12-20T02:49:40;17.08;;;9.00;;
49488;SDS011;35382;51.484;11.476;2023-12-20T02:52:08;16.40;;;8.55;;
49488;SDS011;35382;51.484;11.476;2023-12-20T02:54:33;16.50;;;8.38;;
49488;SDS011;35382;51.484;11.476;2023-12-20T02:56:59;17.45;;;9.40;;
49488;SDS011;35382;51.484;11.476;2023-12-20T02:59:24;21.15;;;10.30;;
49488;SDS011;35382;51.484;11.476;2023-12-20T03:01:49;18.52;;;9.85;;
49488;SDS011;35382;51.484;11.476;2023-12-20T03:04:15;22.48;;;10.82;;
49488;SDS011;35382;51.484;11.476;2023-12-20T03:06:41;20.25;;;10.23;;
49488;SDS011;35382;51.484;11.476;2023-12-20T03:09:07;22.90;;;10.63;;
49488;SDS011;35382;51.484;11.476;2023-12-20T03:11:33;21.33;;;10.63;;
49488;SDS011;35382;51.484;11.476;2023-12-20T03:13:58;19.42;;;9.70;;
49488;SDS011;35382;51.484;11.476;2023-12-20T03:16:23;19.98;;;10.00;;
49488;SDS011;35382;51.484;11.476;2023-12-20T03:18:49;21.70;;;9.38;;
49488;SDS011;35382;51.484;11.476;2023-12-20T03:21:17;18.45;;;10.35;;
49488;SDS011;35382;51.484;11.476;2023-12-20T03:23:43;17.85;;;9.07;;
49488;SDS011;35382;51.484;11.476;2023-12-20T03:26:08;18.50;;;9.65;;
49488;SDS011;35382;51.484;11.476;2023-12-20T03:28:34;20.65;;;9.65;;
49488;SDS011;35382;51.484;11.476;2023-12-20T03:33:27;18.83;;;9.07;;
49488;SDS011;35382;51.484;11.476;2023-12-20T03:35:52;18.63;;;9.77;;
49488;SDS011;35382;51.484;11.476;2023-12-20T03:38:17;18.13;;;9.45;;
49488;SDS011;35382;51.484;11.476;2023-12-20T03:40:43;23.08;;;10.80;;
49488;SDS011;35382;51.484;11.476;2023-12-20T03:43:08;21.67;;;10.13;;
49488;SDS011;35382;51.484;11.476;2023-12-20T03:45:33;23.35;;;9.95;;
49488;SDS011;35382;51.484;11.476;2023-12-20T03:47:59;23.35;;;11.13;;
49488;SDS011;35382;51.484;11.476;2023-12-20T03:50:25;26.23;;;10.48;;
49488;SDS011;35382;51.484;11.476;2023-12-20T03:55:17;24.40;;;10.40;;
49488;SDS011;35382;51.484;11.476;2023-12-20T03:57:43;24.15;;;10.45;;
49488;SDS011;35382;51.484;11.476;2023-12-20T04:00:08;24.50;;;10.43;;
49488;SDS011;35382;51.484;11.476;2023-12-20T04:02:37;23.60;;;10.18;;
49488;SDS011;35382;51.484;11.476;2023-12-20T04:05:03;23.50;;;10.65;;
49488;SDS011;35382;51.484;11.476;2023-12-20T04:07:29;24.70;;;11.27;;
49488;SDS011;35382;51.484;11.476;2023-12-20T04:09:55;25.15;;;11.80;;
49488;SDS011;35382;51.484;11.476;2023-12-20T04:12:20;26.73;;;11.40;;
49488;SDS011;35382;51.484;11.476;2023-12-20T04:14:46;27.83;;;11.50;;
49488;SDS011;35382;51.484;11.476;2023-12-20T04:17:13;24.63;;;11.32;;
49488;SDS011;35382;51.484;11.476;2023-12-20T04:19:39;25.27;;;11.07;;
49488;SDS011;35382;51.484;11.476;2023-12-20T04:22:04;26.55;;;10.13;;
49488;SDS011;35382;51.484;11.476;2023-12-20T04:24:30;23.15;;;10.30;;
49488;SDS011;35382;51.484;11.476;2023-12-20T04:26:55;22.67;;;10.20;;
49488;SDS011;35382;51.484;11.476;2023-12-20T04:29:20;23.50;;;10.57;;
49488;SDS011;35382;51.484;11.476;2023-12-20T04:31:46;26.58;;;10.52;;
49488;SDS011;35382;51.484;11.476;2023-12-20T04:34:11;27.48;;;10.45;;
49488;SDS011;35382;51.484;11.476;2023-12-20T04:36:36;22.10;;;9.70;;
49488;SDS011;35382;51.484;11.476;2023-12-20T04:39:02;23.33;;;9.90;;
49488;SDS011;35382;51.484;11.476;2023-12-20T04:41:28;27.77;;;10.00;;
49488;SDS011;35382;51.484;11.476;2023-12-20T04:43:53;23.25;;;8.95;;
49488;SDS011;35382;51.484;11.476;2023-12-20T04:46:19;19.70;;;8.40;;
49488;SDS011;35382;51.484;11.476;2023-12-20T04:48:44;23.13;;;9.50;;
49488;SDS011;35382;51.484;11.476;2023-12-20T04:51:09;23.15;;;10.38;;
49488;SDS011;35382;51.484;11.476;2023-12-20T04:53:35;18.98;;;8.65;;
49488;SDS011;35382;51.484;11.476;2023-12-20T04:56:00;19.45;;;8.32;;
49488;SDS011;35382;51.484;11.476;2023-12-20T04:58:26;18.20;;;8.38;;
49488;SDS011;35382;51.484;11.476;2023-12-20T05:00:51;16.38;;;7.30;;
49488;SDS011;35382;51.484;11.476;2023-12-20T05:03:16;15.15;;;7.25;;
49488;SDS011;35382;51.484;11.476;2023-12-20T05:05:42;16.45;;;7.35;;
49488;SDS011;35382;51.484;11.476;2023-12-20T05:08:08;15.20;;;6.90;;
49488;SDS011;35382;51.484;11.476;2023-12-20T05:10:33;15.07;;;6.05;;
49488;SDS011;35382;51.484;11.476;2023-12-20T05:12:58;12.43;;;5.85;;
49488;SDS011;35382;51.484;11.476;2023-12-20T05:15:24;12.75;;;6.20;;
49488;SDS011;35382;51.484;11.476;2023-12-20T05:17:49;12.25;;;5.72;;
49488;SDS011;35382;51.484;11.476;2023-12-20T05:20:14;11.85;;;5.28;;
49488;SDS011;35382;51.484;11.476;2023-12-20T05:22:40;9.85;;;4.45;;
49488;SDS011;35382;51.484;11.476;2023-12-20T05:25:08;7.75;;;4.07;;
49488;SDS011;35382;51.484;11.476;2023-12-20T05:27:33;6.68;;;3.30;;
49488;SDS011;35382;51.484;11.476;2023-12-20T05:29:59;5.57;;;2.80;;
49488;SDS011;35382;51.484;11.476;2023-12-20T05:32:24;6.35;;;3.17;;
49488;SDS011;35382;51.484;11.476;2023-12-20T05:34:50;7.93;;;2.70;;
49488;SDS011;35382;51.484;11.476;2023-12-20T05:37:15;8.63;;;3.08;;
49488;SDS011;35382;51.484;11.476;2023-12-20T05:39:40;11.43;;;4.00;;
49488;SDS011;35382;51.484;11.476;2023-12-20T05:42:06;6.40;;;3.60;;
49488;SDS011;35382;51.484;11.476;2023-12-20T05:44:31;10.05;;;4.60;;
49488;SDS011;35382;51.484;11.476;2023-12-20T05:46:57;10.63;;;5.30;;
49488;SDS011;35382;51.484;11.476;2023-12-20T05:49:22;11.90;;;5.75;;
49488;SDS011;35382;51.484;11.476;2023-12-20T05:51:47;11.07;;;5.78;;
49488;SDS011;35382;51.484;11.476;2023-12-20T05:54:15;13.27;;;6.47;;
49488;SDS011;35382;51.484;11.476;2023-12-20T05:56:41;15.45;;;6.60;;
49488;SDS011;35382;51.484;11.476;2023-12-20T05:59:06;12.73;;;5.43;;
49488;SDS011;35382;51.484;11.476;2023-12-20T06:01:31;11.90;;;5.88;;
49488;SDS011;35382;51.484;11.476;2023-12-20T06:03:57;11.80;;;6.10;;
49488;SDS011;35382;51.484;11.476;2023-12-20T06:06:23;12.70;;;5.78;;
49488;SDS011;35382;51.484;11.476;2023-12-20T06:08:48;13.88;;;5.65;;
49488;SDS011;35382;51.484;11.476;2023-12-20T06:11:14;8.07;;;4.28;;
49488;SDS011;35382;51.484;11.476;2023-12-20T06:13:40;10.00;;;4.93;;
49488;SDS011;35382;51.484;11.476;2023-12-20T06:16:05;9.25;;;4.82;;
49488;SDS011;35382;51.484;11.476;2023-12-20T06:18:31;9.52;;;4.80;;
49488;SDS011;35382;51.484;11.476;2023-12-20T06:20:56;10.27;;;3.92;;
49488;SDS011;35382;51.484;11.476;2023-12-20T06:23:22;8.18;;;3.92;;
49488;SDS011;35382;51.484;11.476;2023-12-20T06:25:47;7.97;;;4.15;;
49488;SDS011;35382;51.484;11.476;2023-12-20T06:28:13;10.27;;;4.78;;
49488;SDS011;35382;51.484;11.476;2023-12-20T06:30:38;8.07;;;4.60;;
49488;SDS011;35382;51.484;11.476;2023-12-20T06:33:03;8.77;;;4.20;;
49488;SDS011;35382;51.484;11.476;2023-12-20T06:35:29;11.18;;;4.57;;
49488;SDS011;35382;51.484;11.476;2023-12-20T06:37:54;10.35;;;3.13;;
49488;SDS011;35382;51.484;11.476;2023-12-20T06:40:20;7.90;;;2.72;;
49488;SDS011;35382;51.484;11.476;2023-12-20T06:42:45;8.90;;;3.08;;
49488;SDS011;35382;51.484;11.476;2023-12-20T06:45:10;8.88;;;3.72;;
49488;SDS011;35382;51.484;11.476;2023-12-20T06:47:36;9.27;;;2.92;;
49488;SDS011;35382;51.484;11.476;2023-12-20T06:50:01;10.70;;;3.25;;
49488;SDS011;35382;51.484;11.476;2023-12-20T06:52:29;7.47;;;2.78;;
49488;SDS011;35382;51.484;11.476;2023-12-20T06:54:54;8.38;;;3.05;;
49488;SDS011;35382;51.484;11.476;2023-12-20T06:57:20;8.95;;;3.03;;
49488;SDS011;35382;51.484;11.476;2023-12-20T06:59:45;10.05;;;2.85;;
49488;SDS011;35382;51.484;11.476;2023-12-20T07:02:10;9.55;;;2.85;;
49488;SDS011;35382;51.484;11.476;2023-12-20T07:04:42;6.70;;;2.40;;
49488;SDS011;35382;51.484;11.476;2023-12-20T07:07:07;5.25;;;2.10;;
49488;SDS011;35382;51.484;11.476;2023-12-20T07:09:33;6.07;;;2.05;;
49488;SDS011;35382;51.484;11.476;2023-12-20T07:11:58;7.75;;;2.10;;
49488;SDS011;35382;51.484;11.476;2023-12-20T07:14:24;7.00;;;2.20;;
49488;SDS011;35382;51.484;11.476;2023-12-20T07:16:49;6.72;;;2.50;;
49488;SDS011;35382;51.484;11.476;2023-12-20T07:19:15;7.78;;;3.22;;
49488;SDS011;35382;51.484;11.476;2023-12-20T07:21:40;7.20;;;3.05;;
49488;SDS011;35382;51.484;11.476;2023-12-20T07:24:05;7.28;;;2.20;;
49488;SDS011;35382;51.484;11.476;2023-12-20T07:26:31;11.50;;;2.40;;
49488;SDS011;35382;51.484;11.476;2023-12-20T07:28:56;10.00;;;2.67;;
49488;SDS011;35382;51.484;11.476;2023-12-20T07:31:22;7.43;;;2.10;;
49488;SDS011;35382;51.484;11.476;2023-12-20T07:33:47;8.13;;;2.60;;
49488;SDS011;35382;51.484;11.476;2023-12-20T07:36:12;11.07;;;2.90;;
49488;SDS011;35382;51.484;11.476;2023-12-20T07:38:38;5.13;;;2.30;;
49488;SDS011;35382;51.484;11.476;2023-12-20T07:41:03;6.18;;;2.47;;
49488;SDS011;35382;51.484;11.476;2023-12-20T07:43:29;10.55;;;2.65;;
49488;SDS011;35382;51.484;11.476;2023-12-20T07:45:54;10.10;;;3.33;;
49488;SDS011;35382;51.484;11.476;2023-12-20T07:48:19;9.52;;;2.42;;
49488;SDS011;35382;51.484;11.476;2023-12-20T07:50:45;6.75;;;2.17;;
49488;SDS011;35382;51.484;11.476;2023-12-20T07:53:10;6.25;;;2.03;;
49488;SDS011;35382;51.484;11.476;2023-12-20T07:55:38;7.25;;;2.85;;
49488;SDS011;35382;51.484;11.476;2023-12-20T07:58:04;9.93;;;2.50;;
49488;SDS011;35382;51.484;11.476;2023-12-20T08:00:29;9.60;;;2.50;;
49488;SDS011;35382;51.484;11.476;2023-12-20T08:02:55;8.15;;;2.30;;
49488;SDS011;35382;51.484;11.476;2023-12-20T08:05:20;9.60;;;2.10;;
49488;SDS011;35382;51.484;11.476;2023-12-20T08:07:46;8.07;;;2.38;;
49488;SDS011;35382;51.484;11.476;2023-12-20T08:10:11;7.97;;;2.60;;
49488;SDS011;35382;51.484;11.476;2023-12-20T08:12:36;10.32;;;2.80;;
49488;SDS011;35382;51.484;11.476;2023-12-20T08:15:02;10.32;;;2.80;;
49488;SDS011;35382;51.484;11.476;2023-12-20T08:17:27;10.18;;;2.92;;
49488;SDS011;35382;51.484;11.476;2023-12-20T08:19:53;9.10;;;2.70;;
49488;SDS011;35382;51.484;11.476;2023-12-20T08:22:18;7.22;;;2.65;;
49488;SDS011;35382;51.484;11.476;2023-12-20T08:24:43;7.47;;;2.45;;
49488;SDS011;35382;51.484;11.476;2023-12-20T08:27:09;9.88;;;2.83;;
49488;SDS011;35382;51.484;11.476;2023-12-20T08:29:34;7.07;;;2.33;;
49488;SDS011;35382;51.484;11.476;2023-12-20T08:32:00;8.27;;;2.40;;
49488;SDS011;35382;51.484;11.476;2023-12-20T08:34:25;6.13;;;2.65;;
49488;SDS011;35382;51.484;11.476;2023-12-20T08:36:51;9.27;;;2.50;;
49488;SDS011;35382;51.484;11.476;2023-12-20T08:39:18;9.13;;;2.80;;
49488;SDS011;35382;51.484;11.476;2023-12-20T08:41:44;9.68;;;2.35;;
49488;SDS011;35382;51.484;11.476;2023-12-20T08:44:10;9.55;;;2.85;;
49488;SDS011;35382;51.484;11.476;2023-12-20T08:46:35;8.68;;;3.00;;
49488;SDS011;35382;51.484;11.476;2023-12-20T08:49:01;10.35;;;3.25;;
49488;SDS011;35382;51.484;11.476;2023-12-20T08:51:27;10.63;;;2.70;;
49488;SDS011;35382;51.484;11.476;2023-12-20T08:53:52;6.55;;;2.10;;
49488;SDS011;35382;51.484;11.476;2023-12-20T08:56:17;5.57;;;2.28;;
49488;SDS011;35382;51.484;11.476;2023-12-20T08:58:43;5.45;;;2.20;;
49488;SDS011;35382;51.484;11.476;2023-12-20T09:01:09;11.40;;;2.40;;
49488;SDS011;35382;51.484;11.476;2023-12-20T09:03:34;6.75;;;1.98;;
49488;SDS011;35382;51.484;11.476;2023-12-20T09:06:00;7.25;;;2.42;;
49488;SDS011;35382;51.484;11.476;2023-12-20T09:08:25;5.78;;;2.63;;
49488;SDS011;35382;51.484;11.476;2023-12-20T09:10:51;9.52;;;2.67;;
49488;SDS011;35382;51.484;11.476;2023-12-20T09:13:16;6.85;;;2.75;;
49488;SDS011;35382;51.484;11.476;2023-12-20T09:15:42;8.50;;;2.67;;
49488;SDS011;35382;51.484;11.476;2023-12-20T09:18:07;8.30;;;2.72;;
49488;SDS011;35382;51.484;11.476;2023-12-20T09:20:33;9.63;;;2.13;;
49488;SDS011;35382;51.484;11.476;2023-12-20T09:22:58;10.77;;;3.60;;
49488;SDS011;35382;51.484;11.476;2023-12-20T09:25:24;7.93;;;2.47;;
49488;SDS011;35382;51.484;11.476;2023-12-20T09:27:49;6.43;;;2.70;;
49488;SDS011;35382;51.484;11.476;2023-12-20T09:30:17;6.40;;;2.47;;
49488;SDS011;35382;51.484;11.476;2023-12-20T09:32:43;8.13;;;2.88;;
49488;SDS011;35382;51.484;11.476;2023-12-20T09:35:08;9.02;;;2.70;;
49488;SDS011;35382;51.484;11.476;2023-12-20T09:37:34;8.68;;;3.08;;
49488;SDS011;35382;51.484;11.476;2023-12-20T09:39:59;7.40;;;2.70;;
49488;SDS011;35382;51.484;11.476;2023-12-20T09:42:29;5.55;;;2.25;;
49488;SDS011;35382;51.484;11.476;2023-12-20T09:45:17;11.07;;;3.45;;
49488;SDS011;35382;51.484;11.476;2023-12-20T09:47:45;7.53;;;3.15;;
49488;SDS011;35382;51.484;11.476;2023-12-20T09:50:11;8.32;;;2.42;;
49488;SDS011;35382;51.484;11.476;2023-12-20T09:52:37;11.10;;;2.65;;
49488;SDS011;35382;51.484;11.476;2023-12-20T09:55:04;11.57;;;3.05;;
49488;SDS011;35382;51.484;11.476;2023-12-20T09:57:33;10.35;;;2.88;;
49488;SDS011;35382;51.484;11.476;2023-12-20T10:00:04;8.57;;;3.53;;
49488;SDS011;35382;51.484;11.476;2023-12-20T10:02:38;8.25;;;3.20;;
49488;SDS011;35382;51.484;11.476;2023-12-20T10:05:30;9.30;;;3.58;;
49488;SDS011;35382;51.484;11.476;2023-12-20T10:07:57;9.23;;;2.88;;
49488;SDS011;35382;51.484;11.476;2023-12-20T10:13:39;7.00;;;4.10;;
49488;SDS011;35382;51.484;11.476;2023-12-20T10:16:12;9.18;;;3.28;;
49488;SDS011;35382;51.484;11.476;2023-12-20T10:18:40;8.77;;;3.80;;
49488;SDS011;35382;51.484;11.476;2023-12-20T10:21:14;9.02;;;3.50;;
49488;SDS011;35382;51.484;11.476;2023-12-20T10:27:05;11.90;;;3.65;;
49488;SDS011;35382;51.484;11.476;2023-12-20T10:29:40;10.38;;;3.80;;
49488;SDS011;35382;51.484;11.476;2023-12-20T10:32:32;10.80;;;3.13;;
49488;SDS011;35382;51.484;11.476;2023-12-20T10:35:04;11.68;;;3.47;;
49488;SDS011;35382;51.484;11.476;2023-12-20T10:38:12;7.15;;;2.88;;
49488;SDS011;35382;51.484;11.476;2023-12-20T10:40:37;6.95;;;3.03;;
49488;SDS011;35382;51.484;11.476;2023-12-20T10:43:06;9.77;;;3.83;;
49488;SDS011;35382;51.484;11.476;2023-12-20T10:45:34;9.40;;;3.70;;
49488;SDS011;35382;51.484;11.476;2023-12-20T10:47:59;8.88;;;3.45;;
49488;SDS011;35382;51.484;11.476;2023-12-20T10:50:27;9.25;;;3.78;;
49488;SDS011;35382;51.484;11.476;2023-12-20T10:52:54;8.30;;;3.50;;
49488;SDS011;35382;51.484;11.476;2023-12-20T10:58:29;6.95;;;3.47;;
49488;SDS011;35382;51.484;11.476;2023-12-20T11:01:01;8.98;;;3.28;;
49488;SDS011;35382;51.484;11.476;2023-12-20T11:03:28;9.73;;;3.67;;
49488;SDS011;35382;51.484;11.476;2023-12-20T11:06:07;9.68;;;3.70;;
49488;SDS011;35382;51.484;11.476;2023-12-20T11:14:50;9.93;;;4.13;;
49488;SDS011;35382;51.484;11.476;2023-12-20T11:17:32;8.18;;;3.17;;
49488;SDS011;35382;51.484;11.476;2023-12-20T11:20:08;10.73;;;2.95;;
49488;SDS011;35382;51.484;11.476;2023-12-20T11:26:02;7.43;;;3.25;;
49488;SDS011;35382;51.484;11.476;2023-12-20T11:32:04;9.52;;;3.30;;
49488;SDS011;35382;51.484;11.476;2023-12-20T11:38:19;9.73;;;3.53;;
49488;SDS011;35382;51.484;11.476;2023-12-20T11:40:49;6.35;;;2.75;;
49488;SDS011;35382;51.484;11.476;2023-12-20T11:46:13;5.85;;;2.50;;
49488;SDS011;35382;51.484;11.476;2023-12-20T11:48:54;8.23;;;2.92;;
49488;SDS011;35382;51.484;11.476;2023-12-20T11:51:23;10.52;;;3.22;;
49488;SDS011;35382;51.484;11.476;2023-12-20T11:53:55;7.05;;;3.05;;
49488;SDS011;35382;51.484;11.476;2023-12-20T11:56:20;8.38;;;3.10;;
49488;SDS011;35382;51.484;11.476;2023-12-20T11:58:46;6.45;;;2.80;;
49488;SDS011;35382;51.484;11.476;2023-12-20T12:01:11;8.02;;;2.75;;
49488;SDS011;35382;51.484;11.476;2023-12-20T12:03:36;7.15;;;2.90;;
49488;SDS011;35382;51.484;11.476;2023-12-20T12:06:02;8.23;;;3.15;;
49488;SDS011;35382;51.484;11.476;2023-12-20T12:08:27;7.60;;;2.60;;
49488;SDS011;35382;51.484;11.476;2023-12-20T12:10:53;8.40;;;3.20;;
49488;SDS011;35382;51.484;11.476;2023-12-20T12:13:18;10.23;;;3.20;;
49488;SDS011;35382;51.484;11.476;2023-12-20T12:15:44;9.63;;;3.90;;
49488;SDS011;35382;51.484;11.476;2023-12-20T12:18:09;7.15;;;3.05;;
49488;SDS011;35382;51.484;11.476;2023-12-20T12:20:34;10.57;;;3.03;;
49488;SDS011;35382;51.484;11.476;2023-12-20T12:23:00;9.00;;;2.95;;
49488;SDS011;35382;51.484;11.476;2023-12-20T12:25:28;9.48;;;2.58;;
49488;SDS011;35382;51.484;11.476;2023-12-20T12:27:54;8.50;;;2.50;;
49488;SDS011;35382;51.484;11.476;2023-12-20T12:30:20;9.93;;;3.80;;
49488;SDS011;35382;51.484;11.476;2023-12-20T12:32:46;7.55;;;2.85;;
49488;SDS011;35382;51.484;11.476;2023-12-20T12:35:11;8.60;;;2.90;;
49488;SDS011;35382;51.484;11.476;2023-12-20T12:37:37;6.93;;;3.00;;
49488;SDS011;35382;51.484;11.476;2023-12-20T12:40:04;9.07;;;3.10;;
49488;SDS011;35382;51.484;11.476;2023-12-20T12:42:31;8.10;;;3.20;;
49488;SDS011;35382;51.484;11.476;2023-12-20T12:44:56;9.05;;;3.55;;
49488;SDS011;35382;51.484;11.476;2023-12-20T12:47:22;8.43;;;3.15;;
49488;SDS011;35382;51.484;11.476;2023-12-20T12:49:47;12.60;;;3.50;;
49488;SDS011;35382;51.484;11.476;2023-12-20T12:52:16;11.68;;;3.53;;
49488;SDS011;35382;51.484;11.476;2023-12-20T12:54:41;10.00;;;3.08;;
49488;SDS011;35382;51.484;11.476;2023-12-20T12:57:06;8.52;;;3.33;;
49488;SDS011;35382;51.484;11.476;2023-12-20T12:59:32;14.65;;;3.60;;
49488;SDS011;35382;51.484;11.476;2023-12-20T13:01:57;6.65;;;3.30;;
49488;SDS011;35382;51.484;11.476;2023-12-20T13:04:23;10.43;;;3.30;;
49488;SDS011;35382;51.484;11.476;2023-12-20T13:06:48;8.15;;;3.20;;
49488;SDS011;35382;51.484;11.476;2023-12-20T13:09:13;8.25;;;3.40;;
49488;SDS011;35382;51.484;11.476;2023-12-20T13:11:39;6.95;;;3.15;;
49488;SDS011;35382;51.484;11.476;2023-12-20T13:14:04;9.13;;;3.28;;
49488;SDS011;35382;51.484;11.476;2023-12-20T13:16:29;8.95;;;3.03;;
49488;SDS011;35382;51.484;11.476;2023-12-20T13:18:55;7.25;;;3.08;;
49488;SDS011;35382;51.484;11.476;2023-12-20T13:21:20;8.52;;;3.40;;
49488;SDS011;35382;51.484;11.476;2023-12-20T13:23:45;7.30;;;3.33;;
49488;SDS011;35382;51.484;11.476;2023-12-20T13:26:11;13.10;;;3.28;;
49488;SDS011;35382;51.484;11.476;2023-12-20T13:28:36;6.72;;;3.05;;
49488;SDS011;35382;51.484;11.476;2023-12-20T13:31:01;8.93;;;4.38;;
49488;SDS011;35382;51.484;11.476;2023-12-20T13:33:27;6.70;;;3.92;;
49488;SDS011;35382;51.484;11.476;2023-12-20T13:35:52;8.40;;;3.75;;
49488;SDS011;35382;51.484;11.476;2023-12-20T13:38:17;7.97;;;3.05;;
49488;SDS011;35382;51.484;11.476;2023-12-20T13:40:43;7.43;;;3.03;;
49488;SDS011;35382;51.484;11.476;2023-12-20T13:43:08;5.43;;;2.92;;
49488;SDS011;35382;51.484;11.476;2023-12-20T13:45:34;6.10;;;2.70;;
49488;SDS011;35382;51.484;11.476;2023-12-20T13:47:59;6.15;;;2.50;;
49488;SDS011;35382;51.484;11.476;2023-12-20T13:50:24;7.65;;;2.83;;
49488;SDS011;35382;51.484;11.476;2023-12-20T13:52:50;7.88;;;2.70;;
49488;SDS011;35382;51.484;11.476;2023-12-20T13:55:15;7.35;;;2.47;;
49488;SDS011;35382;51.484;11.476;2023-12-20T13:57:40;6.68;;;2.72;;
49488;SDS011;35382;51.484;11.476;2023-12-20T14:00:06;7.35;;;2.92;;
49488;SDS011;35382;51.484;11.476;2023-12-20T14:02:35;6.18;;;3.10;;
49488;SDS011;35382;51.484;11.476;2023-12-20T14:05:00;9.30;;;2.67;;
49488;SDS011;35382;51.484;11.476;2023-12-20T14:07:26;8.10;;;2.47;;
49488;SDS011;35382;51.484;11.476;2023-12-20T14:09:51;9.48;;;2.88;;
49488;SDS011;35382;51.484;11.476;2023-12-20T14:12:16;5.35;;;2.67;;
49488;SDS011;35382;51.484;11.476;2023-12-20T14:14:42;6.75;;;2.83;;
49488;SDS011;35382;51.484;11.476;2023-12-20T14:17:07;4.75;;;2.30;;
49488;SDS011;35382;51.484;11.476;2023-12-20T14:19:33;4.63;;;2.05;;
49488;SDS011;35382;51.484;11.476;2023-12-20T14:21:58;9.32;;;2.47;;
49488;SDS011;35382;51.484;11.476;2023-12-20T14:24:24;7.78;;;3.10;;
49488;SDS011;35382;51.484;11.476;2023-12-20T14:26:49;6.75;;;2.85;;
49488;SDS011;35382;51.484;11.476;2023-12-20T14:29:14;6.30;;;2.42;;
49488;SDS011;35382;51.484;11.476;2023-12-20T14:31:40;5.43;;;2.50;;
49488;SDS011;35382;51.484;11.476;2023-12-20T14:34:05;4.78;;;1.80;;
49488;SDS011;35382;51.484;11.476;2023-12-20T14:36:31;6.35;;;2.22;;
49488;SDS011;35382;51.484;11.476;2023-12-20T14:38:56;5.35;;;2.45;;
49488;SDS011;35382;51.484;11.476;2023-12-20T14:41:22;6.85;;;3.25;;
49488;SDS011;35382;51.484;11.476;2023-12-20T14:43:47;8.73;;;3.47;;
49488;SDS011;35382;51.484;11.476;2023-12-20T14:46:13;9.85;;;3.25;;
49488;SDS011;35382;51.484;11.476;2023-12-20T14:48:38;9.80;;;3.88;;
49488;SDS011;35382;51.484;11.476;2023-12-20T14:51:06;7.70;;;3.30;;
49488;SDS011;35382;51.484;11.476;2023-12-20T14:53:32;6.85;;;2.97;;
49488;SDS011;35382;51.484;11.476;2023-12-20T14:55:57;10.30;;;3.42;;